createdAt,value
2018-06-23T00:00:24.670Z,10.07
2018-06-23T00:02:53.950Z,9.98
2018-06-23T00:05:23.262Z,9.98
2018-06-23T00:07:52.536Z,9.86
2018-06-23T00:10:21.835Z,9.92
2018-06-23T00:12:51.178Z,9.92
2018-06-23T00:15:20.486Z,9.90
2018-06-23T00:17:49.779Z,9.97
2018-06-23T00:20:19.062Z,9.91
2018-06-23T00:22:48.424Z,9.96
2018-06-23T00:25:22.932Z,9.88
2018-06-23T00:27:52.318Z,9.78
2018-06-23T00:30:21.723Z,9.81
2018-06-23T00:32:51.037Z,9.85
2018-06-23T00:35:20.329Z,9.90
2018-06-23T00:37:49.595Z,9.88
2018-06-23T00:40:18.886Z,10.01
2018-06-23T00:42:48.245Z,9.92
2018-06-23T00:45:17.524Z,9.92
2018-06-23T00:47:46.578Z,9.95
2018-06-23T00:50:15.846Z,9.87
2018-06-23T00:52:44.857Z,9.97
2018-06-23T00:55:14.146Z,9.90
2018-06-23T00:57:43.430Z,9.89
2018-06-23T01:00:12.731Z,9.89
2018-06-23T01:02:41.984Z,9.87
2018-06-23T01:05:11.238Z,9.89
2018-06-23T01:07:40.536Z,9.78
2018-06-23T01:10:09.798Z,9.76
2018-06-23T01:12:39.071Z,9.75
2018-06-23T01:15:08.315Z,9.84
2018-06-23T01:17:37.610Z,9.78
2018-06-23T01:20:06.959Z,9.71
2018-06-23T01:22:36.243Z,9.71
2018-06-23T01:25:05.569Z,9.68
2018-06-23T01:27:34.849Z,9.68
2018-06-23T01:30:04.646Z,9.75
2018-06-23T01:32:33.932Z,9.62
2018-06-23T01:35:03.233Z,9.59
2018-06-23T01:37:32.485Z,9.60
2018-06-23T01:40:01.718Z,9.62
2018-06-23T01:42:30.984Z,9.61
2018-06-23T01:45:00.177Z,9.57
2018-06-23T01:47:29.390Z,9.50
2018-06-23T01:49:58.790Z,9.47
2018-06-23T01:52:28.080Z,9.48
2018-06-23T01:54:57.334Z,9.33
2018-06-23T01:57:26.723Z,9.39
2018-06-23T01:59:55.979Z,9.32
2018-06-23T02:02:25.241Z,9.38
2018-06-23T02:04:54.494Z,9.29
2018-06-23T02:07:23.716Z,9.33
2018-06-23T02:09:53.045Z,9.28
2018-06-23T02:12:22.341Z,9.16
2018-06-23T02:14:56.729Z,9.11
2018-06-23T02:17:31.278Z,9.02
2018-06-23T02:20:05.624Z,8.99
2018-06-23T02:22:39.964Z,9.03
2018-06-23T02:25:14.302Z,8.84
2018-06-23T02:27:48.637Z,8.83
2018-06-23T02:30:23.174Z,8.68
2018-06-23T02:32:53.287Z,8.57
2018-06-23T02:35:22.832Z,8.57
2018-06-23T02:37:52.096Z,8.51
2018-06-23T02:40:21.315Z,8.54
2018-06-23T02:42:50.507Z,8.62
2018-06-23T02:45:19.727Z,8.58
2018-06-23T02:47:49.016Z,8.44
2018-06-23T02:50:18.260Z,8.46
2018-06-23T02:52:47.474Z,8.46
2018-06-23T02:55:16.691Z,8.38
2018-06-23T02:57:45.916Z,8.46
2018-06-23T03:00:15.169Z,8.26
2018-06-23T03:02:44.358Z,8.25
2018-06-23T03:05:13.608Z,8.27
2018-06-23T03:07:42.800Z,8.28
2018-06-23T03:10:11.996Z,8.29
2018-06-23T03:12:41.204Z,8.30
2018-06-23T03:15:10.719Z,8.31
2018-06-23T03:17:39.968Z,8.36
2018-06-23T03:20:09.211Z,8.36
2018-06-23T03:22:38.414Z,8.41
2018-06-23T03:25:07.691Z,8.41
2018-06-23T03:27:36.661Z,8.43
2018-06-23T03:30:06.008Z,8.51
2018-06-23T03:32:35.396Z,8.47
2018-06-23T03:35:04.630Z,8.47
2018-06-23T03:37:33.878Z,8.47
2018-06-23T03:40:03.181Z,8.46
2018-06-23T03:42:32.370Z,8.45
2018-06-23T03:45:01.578Z,8.53
2018-06-23T03:47:30.779Z,8.66
2018-06-23T03:49:59.988Z,8.73
2018-06-23T03:52:29.214Z,8.84
2018-06-23T03:54:58.407Z,8.84
2018-06-23T03:57:27.610Z,8.90
2018-06-23T03:59:56.797Z,8.89
2018-06-23T04:02:26.043Z,8.99
2018-06-23T04:04:55.399Z,9.03
2018-06-23T04:07:24.758Z,9.14
2018-06-23T04:09:53.999Z,9.24
2018-06-23T04:12:22.995Z,9.27
2018-06-23T04:14:52.250Z,9.34
2018-06-23T04:17:21.580Z,9.32
2018-06-23T04:19:50.860Z,9.36
2018-06-23T04:22:20.196Z,9.38
2018-06-23T04:24:49.546Z,9.47
2018-06-23T04:27:18.935Z,9.56
2018-06-23T04:29:48.271Z,9.64
2018-06-23T04:32:18.078Z,9.70
2018-06-23T04:34:47.599Z,9.67
2018-06-23T04:37:16.911Z,9.70
2018-06-23T04:39:46.166Z,9.67
2018-06-23T04:42:15.473Z,9.74
2018-06-23T04:44:44.743Z,9.72
2018-06-23T04:47:14.133Z,9.75
2018-06-23T04:49:43.387Z,9.91
2018-06-23T04:52:12.724Z,9.96
2018-06-23T04:54:41.951Z,9.91
2018-06-23T04:57:11.165Z,10.06
2018-06-23T04:59:40.131Z,10.26
2018-06-23T05:02:09.416Z,11.05
2018-06-23T05:04:38.719Z,11.67
2018-06-23T05:07:08.071Z,11.82
2018-06-23T05:09:37.443Z,11.73
2018-06-23T05:12:06.882Z,11.54
2018-06-23T05:14:36.196Z,11.45
2018-06-23T05:17:05.990Z,11.68
2018-06-23T05:19:35.457Z,11.85
2018-06-23T05:22:04.823Z,12.12
2018-06-23T05:24:34.122Z,12.71
2018-06-23T05:27:03.415Z,12.64
2018-06-23T05:29:32.719Z,12.68
2018-06-23T05:32:02.019Z,13.07
2018-06-23T05:34:31.315Z,14.01
2018-06-23T05:37:00.582Z,13.85
2018-06-23T05:39:29.816Z,13.92
2018-06-23T05:41:59.102Z,14.22
2018-06-23T05:44:28.361Z,14.58
2018-06-23T05:46:57.685Z,14.49
2018-06-23T05:49:26.950Z,14.71
2018-06-23T05:51:55.990Z,14.95
2018-06-23T05:54:25.610Z,14.94
2018-06-23T05:56:54.934Z,15.20
2018-06-23T05:59:24.206Z,15.43
2018-06-23T06:01:53.520Z,15.27
2018-06-23T06:04:22.827Z,15.38
2018-06-23T06:06:51.867Z,15.45
2018-06-23T06:09:21.275Z,15.35
2018-06-23T06:11:50.578Z,15.82
2018-06-23T06:14:20.233Z,15.82
2018-06-23T06:17:34.891Z,15.49
2018-06-23T06:20:06.150Z,15.15
2018-06-23T06:22:37.436Z,15.36
2018-06-23T06:25:07.274Z,15.37
2018-06-23T06:27:36.623Z,15.40
2018-06-23T06:30:08.451Z,15.80
2018-06-23T06:32:37.811Z,16.19
2018-06-23T06:35:07.768Z,15.78
2018-06-23T06:37:37.003Z,15.66
2018-06-23T06:40:07.378Z,15.29
2018-06-23T06:42:36.802Z,14.83
2018-06-23T06:45:06.652Z,15.48
2018-06-23T06:47:35.948Z,15.84
2018-06-23T06:50:05.451Z,15.21
2018-06-23T06:52:34.775Z,15.64
2018-06-23T06:55:04.126Z,15.89
2018-06-23T06:57:33.474Z,15.55
2018-06-23T07:00:02.808Z,16.39
2018-06-23T07:02:32.065Z,16.54
2018-06-23T07:05:01.319Z,15.93
2018-06-23T07:07:30.550Z,15.94
2018-06-23T07:09:59.809Z,16.34
2018-06-23T07:12:29.082Z,15.75
2018-06-23T07:14:58.398Z,16.14
2018-06-23T07:17:27.719Z,16.70
2018-06-23T07:19:57.000Z,17.02
2018-06-23T07:22:26.258Z,16.74
2018-06-23T07:24:56.039Z,17.36
2018-06-23T07:27:25.263Z,17.48
2018-06-23T07:29:54.502Z,15.21
2018-06-23T07:32:23.731Z,14.90
2018-06-23T07:34:53.345Z,15.21
2018-06-23T07:37:22.600Z,16.31
2018-06-23T07:39:51.867Z,16.90
2018-06-23T07:42:21.157Z,16.17
2018-06-23T07:44:50.862Z,16.06
2018-06-23T07:47:20.234Z,16.49
2018-06-23T07:49:49.586Z,16.65
2018-06-23T07:52:18.965Z,16.09
2018-06-23T07:54:48.891Z,16.05
2018-06-23T07:57:18.204Z,15.54
2018-06-23T07:59:47.517Z,15.33
2018-06-23T08:02:16.750Z,15.39
2018-06-23T08:04:45.836Z,14.93
2018-06-23T08:07:15.115Z,14.95
2018-06-23T08:09:44.408Z,16.36
2018-06-23T08:12:13.608Z,17.10
2018-06-23T08:14:42.874Z,16.78
2018-06-23T08:17:12.206Z,17.31
2018-06-23T08:19:41.505Z,17.37
2018-06-23T08:22:10.755Z,16.98
2018-06-23T08:24:40.103Z,17.50
2018-06-23T08:27:09.388Z,17.99
2018-06-23T08:29:38.579Z,17.55
2018-06-23T08:32:07.795Z,17.18
2018-06-23T08:34:37.027Z,16.74
2018-06-23T08:37:06.505Z,16.52
2018-06-23T08:39:35.716Z,15.82
2018-06-23T08:42:04.970Z,17.02
2018-06-23T08:44:34.166Z,17.52
2018-06-23T08:47:03.474Z,17.97
2018-06-23T08:49:32.803Z,18.16
2018-06-23T08:52:02.113Z,18.27
2018-06-23T08:54:31.414Z,18.36
2018-06-23T08:57:00.691Z,18.26
2018-06-23T08:59:29.929Z,18.10
2018-06-23T09:01:59.266Z,18.29
2018-06-23T09:04:28.586Z,18.24
2018-06-23T09:06:57.930Z,17.39
2018-06-23T09:09:27.198Z,17.11
2018-06-23T09:11:56.542Z,16.40
2018-06-23T09:14:25.937Z,17.65
2018-06-23T09:16:55.233Z,17.58
2018-06-23T09:19:24.513Z,17.34
2018-06-23T09:21:53.893Z,16.76
2018-06-23T09:24:23.060Z,16.99
2018-06-23T09:26:52.237Z,16.84
2018-06-23T09:29:21.419Z,16.85
2018-06-23T09:31:50.578Z,17.96
2018-06-23T09:34:19.729Z,17.97
2018-06-23T09:36:48.928Z,16.90
2018-06-23T09:39:18.190Z,18.20
2018-06-23T09:41:47.436Z,18.15
2018-06-23T09:44:16.748Z,17.36
2018-06-23T09:46:46.051Z,17.29
2018-06-23T09:49:15.309Z,17.39
2018-06-23T09:51:44.565Z,16.79
2018-06-23T09:54:13.842Z,16.56
2018-06-23T09:56:42.866Z,17.25
2018-06-23T09:59:12.142Z,17.30
2018-06-23T10:01:41.368Z,17.31
2018-06-23T10:04:10.582Z,17.63
2018-06-23T10:06:39.782Z,16.86
2018-06-23T10:09:10.410Z,17.40
2018-06-23T10:11:39.710Z,17.19
2018-06-23T10:14:09.099Z,17.03
2018-06-23T10:16:38.520Z,17.42
2018-06-23T10:19:07.922Z,17.88
2018-06-23T10:21:37.537Z,17.57
2018-06-23T10:24:07.055Z,17.74
2018-06-23T10:26:36.669Z,18.07
2018-06-23T10:29:05.938Z,18.15
2018-06-23T10:31:35.280Z,17.32
2018-06-23T10:34:04.680Z,17.82
2018-06-23T10:36:34.223Z,18.90
2018-06-23T10:39:03.917Z,18.61
2018-06-23T10:41:33.418Z,18.55
2018-06-23T10:44:02.862Z,19.48
2018-06-23T10:46:32.330Z,18.58
2018-06-23T10:49:01.707Z,19.95
2018-06-23T10:51:31.078Z,19.78
2018-06-23T10:54:00.513Z,20.51
2018-06-23T10:56:30.102Z,19.17
2018-06-23T10:58:59.269Z,18.60
2018-06-23T11:01:28.610Z,17.72
2018-06-23T11:03:58.125Z,17.73
2018-06-23T11:06:27.650Z,17.59
2018-06-23T11:08:57.166Z,18.45
2018-06-23T11:11:26.505Z,19.25
2018-06-23T11:13:55.918Z,18.38
2018-06-23T11:16:25.234Z,18.91
2018-06-23T11:18:54.573Z,18.42
2018-06-23T11:21:23.937Z,17.99
2018-06-23T11:23:53.256Z,17.57
2018-06-23T11:26:22.838Z,17.52
2018-06-23T11:28:52.249Z,18.42
2018-06-23T11:31:21.608Z,18.82
2018-06-23T11:33:50.938Z,18.88
2018-06-23T11:36:20.403Z,19.21
2018-06-23T11:38:49.734Z,18.83
2018-06-23T11:41:19.251Z,19.45
2018-06-23T11:43:48.818Z,19.31
2018-06-23T11:46:18.443Z,20.14
2018-06-23T11:48:47.562Z,19.12
2018-06-23T11:51:17.051Z,18.74
2018-06-23T11:53:46.625Z,19.62
2018-06-23T11:56:16.344Z,19.99
2018-06-23T11:58:45.848Z,19.38
2018-06-23T12:01:15.206Z,19.38
2018-06-23T12:03:44.506Z,19.71
2018-06-23T12:06:13.747Z,19.97
2018-06-23T12:08:43.121Z,19.56
2018-06-23T12:11:12.197Z,19.94
2018-06-23T12:13:42.659Z,19.87
2018-06-23T12:16:11.987Z,19.82
2018-06-23T12:18:41.161Z,20.34
2018-06-23T12:21:10.555Z,20.08
2018-06-23T12:23:40.093Z,20.25
2018-06-23T12:26:09.427Z,19.81
2018-06-23T12:28:38.870Z,20.19
2018-06-23T12:31:08.147Z,20.54
2018-06-23T12:33:37.677Z,20.58
2018-06-23T12:36:07.319Z,20.62
2018-06-23T12:38:36.564Z,21.33
2018-06-23T12:41:05.986Z,20.48
2018-06-23T12:43:35.402Z,20.42
2018-06-23T12:46:05.229Z,20.63
2018-06-23T12:48:34.658Z,20.50
2018-06-23T12:51:03.994Z,20.15
2018-06-23T12:53:33.368Z,19.72
2018-06-23T12:56:02.702Z,20.26
2018-06-23T12:58:32.043Z,20.22
2018-06-23T13:01:01.407Z,19.98
2018-06-23T13:03:30.811Z,20.32
2018-06-23T13:06:00.201Z,20.07
2018-06-23T13:08:29.638Z,20.55
2018-06-23T13:10:59.003Z,20.41
2018-06-23T13:13:28.469Z,20.41
2018-06-23T13:15:58.048Z,20.19
2018-06-23T13:18:28.780Z,20.41
2018-06-23T13:20:58.828Z,19.57
2018-06-23T13:23:28.869Z,20.37
2018-06-23T13:25:58.275Z,20.40
2018-06-23T13:28:28.433Z,20.34
2018-06-23T13:30:57.658Z,20.67
2018-06-23T13:33:27.026Z,20.13
2018-06-23T13:35:56.333Z,20.74
2018-06-23T13:38:25.848Z,21.24
2018-06-23T13:40:55.148Z,21.24
2018-06-23T13:43:24.574Z,20.39
2018-06-23T13:45:53.895Z,20.85
2018-06-23T13:48:23.264Z,21.56
2018-06-23T13:50:52.599Z,21.61
2018-06-23T13:53:22.006Z,20.91
2018-06-23T13:55:51.447Z,21.29
2018-06-23T13:58:20.937Z,21.15
2018-06-23T14:00:50.444Z,21.58
2018-06-23T14:03:19.905Z,21.32
2018-06-23T14:05:49.287Z,21.49
2018-06-23T14:08:18.751Z,21.80
2018-06-23T14:10:48.226Z,21.83
2018-06-23T14:13:17.595Z,21.80
2018-06-23T14:15:46.988Z,21.27
2018-06-23T14:18:16.594Z,21.02
2018-06-23T14:20:46.298Z,20.93
2018-06-23T14:23:16.588Z,20.42
2018-06-23T14:25:45.708Z,21.24
2018-06-23T14:28:15.110Z,20.62
2018-06-23T14:30:44.463Z,21.22
2018-06-23T14:33:13.830Z,21.61
2018-06-23T14:35:43.233Z,20.11
2018-06-23T14:38:12.601Z,21.03
2018-06-23T14:40:41.946Z,21.34
2018-06-23T14:43:11.430Z,21.59
2018-06-23T14:45:40.867Z,21.83
2018-06-23T14:48:10.308Z,21.73
2018-06-23T14:50:39.745Z,21.16
2018-06-23T14:53:09.007Z,21.43
2018-06-23T14:55:38.240Z,21.48
2018-06-23T14:58:07.458Z,21.10
2018-06-23T15:00:36.820Z,21.47
2018-06-23T15:03:06.006Z,21.82
2018-06-23T15:05:35.167Z,21.73
2018-06-23T15:08:21.650Z,21.83
2018-06-23T15:11:08.017Z,21.98
2018-06-23T15:13:37.322Z,21.60
2018-06-23T15:16:06.671Z,21.46
2018-06-23T15:18:36.310Z,21.48
2018-06-23T15:21:05.434Z,21.91
2018-06-23T15:23:34.518Z,21.50
2018-06-23T15:26:04.005Z,21.00
2018-06-23T15:28:33.326Z,21.09
2018-06-23T15:31:02.892Z,21.06
2018-06-23T15:33:32.435Z,20.95
2018-06-23T15:36:01.833Z,21.10
2018-06-23T15:38:31.561Z,20.64
2018-06-23T15:41:04.838Z,20.44
2018-06-23T15:43:34.288Z,20.71
2018-06-23T15:46:03.660Z,21.38
2018-06-23T15:48:33.046Z,21.50
2018-06-23T15:51:02.451Z,21.92
2018-06-23T15:53:31.859Z,21.45
2018-06-23T15:56:01.227Z,21.44
2018-06-23T15:58:30.664Z,21.06
2018-06-23T16:00:59.968Z,20.95
2018-06-23T16:03:29.366Z,20.70
2018-06-23T16:05:58.623Z,21.26
2018-06-23T16:08:27.911Z,21.58
2018-06-23T16:10:57.040Z,21.53
2018-06-23T16:13:26.304Z,20.73
2018-06-23T16:15:55.608Z,20.51
2018-06-23T16:18:24.851Z,20.23
2018-06-23T16:20:54.099Z,20.22
2018-06-23T16:23:23.336Z,19.93
2018-06-23T16:25:52.646Z,19.59
2018-06-23T16:28:21.859Z,19.56
2018-06-23T16:30:51.122Z,19.22
2018-06-23T16:33:20.149Z,19.22
2018-06-23T16:35:49.407Z,19.64
2018-06-23T16:38:18.693Z,19.70
2018-06-23T16:40:47.968Z,20.00
2018-06-23T16:43:17.262Z,19.62
2018-06-23T16:45:46.502Z,19.34
2018-06-23T16:48:15.546Z,19.26
2018-06-23T16:50:44.815Z,19.21
2018-06-23T16:53:14.091Z,19.05
2018-06-23T16:55:43.383Z,18.96
2018-06-23T16:58:13.416Z,18.96
2018-06-23T17:00:42.847Z,18.82
2018-06-23T17:03:12.072Z,18.75
2018-06-23T17:05:41.298Z,18.84
2018-06-23T17:08:10.537Z,18.76
2018-06-23T17:10:39.790Z,18.48
2018-06-23T17:13:09.001Z,18.60
2018-06-23T17:15:38.192Z,18.55
2018-06-23T17:18:07.914Z,18.66
2018-06-23T17:20:37.399Z,18.71
2018-06-23T17:23:06.971Z,18.74
2018-06-23T17:25:36.229Z,18.77
2018-06-23T17:28:05.716Z,18.71
2018-06-23T17:30:35.015Z,18.52
2018-06-23T17:33:04.388Z,18.47
2018-06-23T17:35:33.706Z,18.57
2018-06-23T17:38:03.011Z,18.61
2018-06-23T17:40:32.648Z,18.56
2018-06-23T17:43:01.887Z,18.58
2018-06-23T17:45:31.122Z,18.56
2018-06-23T17:48:00.782Z,18.55
2018-06-23T17:50:30.053Z,18.21
2018-06-23T17:52:59.311Z,18.28
2018-06-23T17:55:28.863Z,17.97
2018-06-23T17:57:58.233Z,18.07
2018-06-23T18:00:27.378Z,17.98
2018-06-23T18:02:56.772Z,17.97
2018-06-23T18:05:25.991Z,18.10
2018-06-23T18:07:55.324Z,18.01
2018-06-23T18:10:24.601Z,17.91
2018-06-23T18:12:53.879Z,17.95
2018-06-23T18:15:23.082Z,17.77
2018-06-23T18:17:52.563Z,17.75
2018-06-23T18:20:21.901Z,17.61
2018-06-23T18:22:51.284Z,17.55
2018-06-23T18:25:20.588Z,17.49
2018-06-23T18:27:49.887Z,17.44
2018-06-23T18:30:19.204Z,17.47
2018-06-23T18:32:48.639Z,17.40
2018-06-23T18:35:17.959Z,17.38
2018-06-23T18:37:47.190Z,17.32
2018-06-23T18:40:16.365Z,17.23
2018-06-23T18:42:45.611Z,17.11
2018-06-23T18:45:14.892Z,17.00
2018-06-23T18:47:44.189Z,16.98
2018-06-23T18:50:13.598Z,16.86
2018-06-23T18:52:42.896Z,16.80
2018-06-23T18:55:12.150Z,16.75
2018-06-23T18:57:41.374Z,16.74
2018-06-23T19:00:10.719Z,16.65
2018-06-23T19:02:40.160Z,16.65
2018-06-23T19:05:09.370Z,16.58
2018-06-23T19:07:38.631Z,16.58
2018-06-23T19:10:07.868Z,16.55
2018-06-23T19:12:37.063Z,16.49
2018-06-23T19:15:06.455Z,16.33
2018-06-23T19:17:35.799Z,16.28
2018-06-23T19:20:05.200Z,16.23
2018-06-23T19:22:34.482Z,16.12
2018-06-23T19:25:03.876Z,15.99
2018-06-23T19:27:33.155Z,15.93
2018-06-23T19:30:02.576Z,15.85
2018-06-23T19:32:31.531Z,15.80
2018-06-23T19:35:00.796Z,15.72
2018-06-23T19:37:30.064Z,15.69
2018-06-23T19:39:59.875Z,15.70
2018-06-23T19:42:29.164Z,15.68
2018-06-23T19:44:58.462Z,15.62
2018-06-23T19:47:27.696Z,15.61
2018-06-23T19:49:57.008Z,15.57
2018-06-23T19:52:26.366Z,15.58
2018-06-23T19:54:55.669Z,15.55
2018-06-23T19:57:25.042Z,15.62
2018-06-23T19:59:54.328Z,15.66
2018-06-23T20:02:23.677Z,15.62
2018-06-23T20:04:53.018Z,15.62
2018-06-23T20:07:22.394Z,15.52
2018-06-23T20:09:51.701Z,15.54
2018-06-23T20:12:21.049Z,15.50
2018-06-23T20:14:50.468Z,15.53
2018-06-23T20:17:19.746Z,15.60
2018-06-23T20:19:49.004Z,15.58
2018-06-23T20:22:18.286Z,15.58
2018-06-23T20:24:47.588Z,15.50
2018-06-23T20:27:16.793Z,15.45
2018-06-23T20:29:46.116Z,15.42
2018-06-23T20:32:15.523Z,15.38
2018-06-23T20:34:44.834Z,15.30
2018-06-23T20:37:14.614Z,15.26
2018-06-23T20:39:43.915Z,15.27
2018-06-23T20:42:13.196Z,15.21
2018-06-23T20:44:42.462Z,15.15
2018-06-23T20:47:11.685Z,15.07
2018-06-23T20:49:40.849Z,15.07
2018-06-23T20:52:10.081Z,15.08
2018-06-23T20:54:39.316Z,15.01
2018-06-23T20:57:08.506Z,14.88
2018-06-23T20:59:37.728Z,14.86
2018-06-23T21:02:07.259Z,14.81
2018-06-23T21:04:36.503Z,14.83
2018-06-23T21:07:05.630Z,14.80
2018-06-23T21:09:34.854Z,14.78
2018-06-23T21:12:04.095Z,14.83
2018-06-23T21:14:33.326Z,14.76
2018-06-23T21:17:02.655Z,14.86
2018-06-23T21:19:32.994Z,15.04
2018-06-23T21:22:02.346Z,14.92
2018-06-23T21:24:31.564Z,14.85
2018-06-23T21:27:00.850Z,14.80
2018-06-23T21:29:32.902Z,14.82
2018-06-23T21:32:02.114Z,14.82
2018-06-23T21:34:31.388Z,14.83
2018-06-23T21:37:00.630Z,14.78
2018-06-23T21:39:29.822Z,14.74
2018-06-23T21:41:59.016Z,14.67
2018-06-23T21:44:28.337Z,14.69
2018-06-23T21:46:57.557Z,14.63
2018-06-23T21:49:26.786Z,14.67
2018-06-23T21:51:56.005Z,14.56
2018-06-23T21:54:25.245Z,14.62
2018-06-23T21:56:54.176Z,14.63
2018-06-23T21:59:23.419Z,14.61
2018-06-23T22:01:52.638Z,14.54
2018-06-23T22:04:21.840Z,14.55
2018-06-23T22:06:51.250Z,14.51
2018-06-23T22:09:20.471Z,14.49
2018-06-23T22:11:49.803Z,14.41
2018-06-23T22:14:19.055Z,14.38
2018-06-23T22:16:48.327Z,14.39
2018-06-23T22:19:17.643Z,14.21
2018-06-23T22:21:46.978Z,14.21
2018-06-23T22:24:16.319Z,14.17
2018-06-23T22:26:45.642Z,14.22
2018-06-23T22:29:14.920Z,14.09
2018-06-23T22:31:44.220Z,13.95
2018-06-23T22:34:13.475Z,13.84
2018-06-23T22:36:42.734Z,13.75
2018-06-23T22:39:13.031Z,13.80
2018-06-23T22:41:42.310Z,13.80
2018-06-23T22:44:11.566Z,13.77
2018-06-23T22:46:40.829Z,13.80
2018-06-23T22:49:09.815Z,13.84
2018-06-23T22:51:39.028Z,13.86
2018-06-23T22:54:08.286Z,13.90
2018-06-23T22:56:37.515Z,13.90
2018-06-23T22:59:07.040Z,13.87
2018-06-23T23:01:36.274Z,13.86
2018-06-23T23:04:12.327Z,14.09
2018-06-23T23:06:41.609Z,13.86
2018-06-23T23:09:11.198Z,13.68
2018-06-23T23:11:40.163Z,13.68
2018-06-23T23:14:09.374Z,13.62
2018-06-23T23:16:38.634Z,13.56
2018-06-23T23:19:07.871Z,13.45
2018-06-23T23:21:37.141Z,13.42
2018-06-23T23:24:06.375Z,13.38
2018-06-23T23:26:35.619Z,13.58
2018-06-23T23:29:04.979Z,13.34
2018-06-23T23:31:34.166Z,13.14
2018-06-23T23:34:03.347Z,13.00
2018-06-23T23:36:32.592Z,13.06
2018-06-23T23:39:01.901Z,12.97
2018-06-23T23:41:31.161Z,12.92
2018-06-23T23:44:00.410Z,12.89
2018-06-23T23:46:29.701Z,12.86
2018-06-23T23:48:59.011Z,12.80
2018-06-23T23:51:28.250Z,12.81
2018-06-23T23:53:57.734Z,12.74
2018-06-23T23:56:26.975Z,12.67
2018-06-23T23:58:56.316Z,12.70
